»·PEaware :: JAS250 MYEM-KVRB

JAS250 :: MYEM-KVRB

FLIGHT INFORMATION

Flight Status: Arrived
Operator:
Japan Air System
More flights by this operator :: More flights under this callsign
Pilot: Andrew J. (13363)
Aircraft: BOMBARDIER BD-100 CHALLENGER 300
(CL30)
More flights by this aircraft type
Origin: MYEM Governors Harbour
Bahamas
Destination: KVRB Vero Beach Mun
United States
More flights between these airports :: More routes between these airports
Route: HEKOP TRV
File this flight plan on PilotEdge
Remarks:
Altitude:
(Current/Filed)
43,000ft
Speed:
(Current/Filed)
465kts
Departed: 27-Apr-18 08:28 PM
Arrived: 27-Apr-18 09:17 PM
Distance/Time
Traveled:
262nm/0:48
Distance/Time
To Go:
Arrived

Flight Plot

Page will automatically refresh every two minutes.

Flight plan parsing failed; only flown route is shown


Map Options




Map Legend


Flown Route
Filed Route
Departure Airport
Arrival Airport
Navaid (VOR, NDB)
Fix

Horizontal Profiles

Position Reports

Time Latitude Longitude Heading Altitude Ground
Speed
27-Apr-18 20:26 25.283012 -76.452717 260 10476ft 288kts
27-Apr-18 20:27 25.272875 -76.550615 265 14982ft 346kts
27-Apr-18 20:28 25.267990 -76.640988 267 18721ft 366kts
27-Apr-18 20:29 25.263716 -76.755115 267 22430ft 387kts
27-Apr-18 20:30 25.259783 -76.876757 267 25540ft 407kts
27-Apr-18 20:31 25.255015 -77.025013 269 28577ft 425kts
27-Apr-18 20:32 25.251076 -77.155039 266 31123ft 421kts
27-Apr-18 20:33 25.246822 -77.281895 264 33572ft 409kts
27-Apr-18 20:34 25.243318 -77.384484 263 35783ft 393kts
27-Apr-18 20:35 25.240117 -77.501535 268 38484ft 374kts
27-Apr-18 20:36 25.286326 -77.603503 300 41157ft 383kts
27-Apr-18 20:37 25.356660 -77.689165 302 42980ft 374kts
27-Apr-18 20:38 25.428811 -77.774552 302 42999ft 387kts
27-Apr-18 20:39 25.503280 -77.862053 303 42998ft 394kts
27-Apr-18 20:40 25.578776 -77.950732 303 42997ft 400kts
27-Apr-18 20:41 25.655098 -78.040515 303 42992ft 404kts
27-Apr-18 20:42 25.732207 -78.131408 303 42995ft 407kts
27-Apr-18 20:43 25.809851 -78.223098 303 42987ft 410kts
27-Apr-18 20:44 25.887888 -78.315445 303 42937ft 411kts
27-Apr-18 20:45 25.965557 -78.407542 303 42936ft 408kts
27-Apr-18 20:46 26.042821 -78.499362 303 42939ft 405kts
27-Apr-18 20:47 26.119318 -78.590451 303 42925ft 403kts
27-Apr-18 20:48 26.175932 -78.657979 302 42934ft 400kts
27-Apr-18 20:49 26.216187 -78.706073 302 42943ft 400kts
27-Apr-18 20:50 26.251370 -78.748147 302 42943ft 400kts
27-Apr-18 20:51 26.327922 -78.839877 303 41843ft 417kts
27-Apr-18 20:52 26.408268 -78.936302 303 40070ft 433kts
27-Apr-18 20:53 26.490589 -79.035326 303 38293ft 443kts
27-Apr-18 20:54 26.574617 -79.136641 304 36494ft 447kts
27-Apr-18 20:55 26.658689 -79.238221 305 34686ft 446kts
27-Apr-18 20:56 26.742045 -79.339166 305 32875ft 442kts
27-Apr-18 20:57 26.824340 -79.439063 306 31058ft 435kts
27-Apr-18 20:58 26.905543 -79.537855 306 29176ft 428kts
27-Apr-18 20:59 26.985180 -79.634962 306 27154ft 422kts
27-Apr-18 21:00 27.060710 -79.727276 306 25075ft 420kts
27-Apr-18 21:01 27.106704 -79.783594 306 23636ft 420kts
27-Apr-18 21:02 27.176104 -79.868705 306 21411ft 414kts
27-Apr-18 21:03 27.252547 -79.962630 307 18899ft 401kts
27-Apr-18 21:04 27.325906 -80.052974 307 16390ft 384kts
27-Apr-18 21:05 27.396014 -80.139495 307 13876ft 366kts
27-Apr-18 21:06 27.462594 -80.221824 307 11364ft 347kts
27-Apr-18 21:07 27.522874 -80.296417 307 10129ft 298kts
27-Apr-18 21:08 27.562778 -80.363512 273 9021ft 232kts
27-Apr-18 21:09 27.573262 -80.435901 283 6527ft 246kts
27-Apr-18 21:10 27.594635 -80.511536 293 4028ft 253kts
27-Apr-18 21:11 27.625066 -80.575338 336 2924ft 226kts
27-Apr-18 21:12 27.676559 -80.547028 58 2252ft 218kts
27-Apr-18 21:13 27.679255 -80.489523 121 1252ft 184kts
27-Apr-18 21:14 27.663620 -80.445688 112 275ft 130kts
27-Apr-18 21:15 27.653709 -80.416264 115 23ft 78kts
27-Apr-18 21:16 27.651246 -80.413056 290 23ft 5kts
27-Apr-18 21:17 27.652111 -80.415637 290 23ft 10kts
27-Apr-18 21:18 27.652960 -80.418228 292 23ft 6kts
27-Apr-18 21:19 27.652604 -80.418518 110 23ft 0kts
27-Apr-18 21:20 27.652604 -80.418518 110 23ft 0kts
27-Apr-18 21:21 27.652604 -80.418518 110 23ft 0kts
27-Apr-18 21:22 27.652604 -80.418518 110 23ft 0kts
27-Apr-18 21:23 27.652604 -80.418518 110 23ft 0kts
27-Apr-18 21:24 27.652604 -80.418518 110 23ft 0kts
27-Apr-18 21:25 27.652604 -80.418518 110 23ft 0kts
27-Apr-18 21:26 27.652604 -80.418518 110 23ft 0kts
27-Apr-18 21:27 27.652604 -80.418518 110 23ft 0kts
27-Apr-18 21:28 27.652604 -80.418518 110 23ft 0kts
27-Apr-18 21:29 27.652604 -80.418518 110 23ft 0kts
27-Apr-18 21:30 27.652604 -80.418518 110 23ft 0kts

Navigation Log

Ident Type
Flight plan parsing failed, navigation log unavailable